Terminal Aerodrome Forecast
Issued by NWS

Home | Current Version | Previous Version | Text Only | Print | Product List | Glossary On
Versions: 1 2 3 4 5 6 7 8 9 10 11 12 13 14 15 16 17 18 19 20 21 22 23 24 25 26 27 28
000
FTUS41 KOKX 040832 AAC
TAFHPN
TAF AMD
KHPN 040832Z 0409/0506 VRB04KT P6SM BKN250
     FM041000 04007KT P6SM BKN250
     FM041300 07010KT P6SM BKN030
     FM041700 09010KT P6SM BKN040
     FM041900 10011G17KT P6SM BKN070
     FM050000 09007KT P6SM BKN250
     FM050400 05006KT P6SM SCT250
      AMD NOT SKED=

USA.gov is the U.S. government's official web portal to all federal, state and local government web resources and services.